createdAt,value
2023-03-12T00:02:40.742Z,98070.66
2023-03-12T00:07:43.568Z,98069.47
2023-03-12T00:12:46.956Z,98062.28
2023-03-12T00:17:52.655Z,98061.22
2023-03-12T00:22:55.444Z,98061.91
2023-03-12T00:27:58.417Z,98065.00
2023-03-12T00:33:02.993Z,98063.41
2023-03-12T00:38:06.301Z,98057.06
2023-03-12T00:43:09.101Z,98044.50
2023-03-12T00:48:13.330Z,98045.44
2023-03-12T00:53:16.266Z,98053.91
2023-03-12T00:58:19.050Z,98055.53
2023-03-12T01:03:23.312Z,98057.94
2023-03-12T01:08:26.260Z,98056.16
2023-03-12T01:13:29.223Z,98054.41
2023-03-12T01:18:33.804Z,98053.25
2023-03-12T01:23:36.630Z,98041.09
2023-03-12T01:28:39.674Z,98034.09
2023-03-12T01:33:44.033Z,98033.88
2023-03-12T01:38:47.189Z,98030.63
2023-03-12T01:43:50.902Z,98033.25
2023-03-12T01:49:00.463Z,98042.09
2023-03-12T01:54:08.685Z,98034.88
2023-03-12T01:59:16.588Z,98025.25
2023-03-12T02:04:24.004Z,98024.41
2023-03-12T02:09:27.143Z,98015.66
2023-03-12T02:14:30.260Z,98015.50
2023-03-12T02:19:44.924Z,98008.41
2023-03-12T02:24:52.141Z,98011.75
2023-03-12T02:29:56.356Z,98015.34
2023-03-12T02:35:01.378Z,97999.50
2023-03-12T02:40:09.727Z,97982.19
2023-03-12T02:45:14.018Z,97983.03
2023-03-12T02:50:17.163Z,97981.34
2023-03-12T02:55:20.161Z,97979.56
2023-03-12T03:00:25.267Z,97977.88
2023-03-12T03:05:30.000Z,97970.94
2023-03-12T03:10:32.894Z,97976.81
2023-03-12T03:15:38.898Z,97964.41
2023-03-12T03:20:43.552Z,97952.56
2023-03-12T03:25:47.610Z,97952.56
2023-03-12T03:30:53.928Z,97966.09
2023-03-12T03:35:59.453Z,97947.88
2023-03-12T03:41:04.115Z,97950.38
2023-03-12T03:46:13.610Z,97955.47
2023-03-12T03:51:20.018Z,97960.63
2023-03-12T03:56:27.629Z,97960.53
2023-03-12T04:01:32.332Z,97970.19
2023-03-12T04:06:37.514Z,97976.81
2023-03-12T04:25:07.293Z,97981.50
2023-03-12T04:30:11.753Z,97978.03
2023-03-12T04:35:15.060Z,97966.56
2023-03-12T04:40:19.970Z,97954.09
2023-03-12T04:45:23.064Z,97941.75
2023-03-12T04:50:26.143Z,97934.84
2023-03-12T04:55:30.485Z,97932.91
2023-03-12T05:00:33.546Z,97939.59
2023-03-12T05:05:36.808Z,97937.13
2023-03-12T05:10:41.452Z,97926.66
2023-03-12T05:15:50.565Z,97915.41
2023-03-12T05:21:00.381Z,97921.19
2023-03-12T05:26:04.955Z,97913.94
2023-03-12T05:31:10.858Z,97914.63
2023-03-12T05:36:15.473Z,97918.84
2023-03-12T05:41:24.434Z,97912.09
2023-03-12T05:46:29.463Z,97915.31
2023-03-12T05:51:33.694Z,97908.97
2023-03-12T05:56:38.901Z,97905.53
2023-03-12T06:01:42.989Z,97910.75
2023-03-12T06:06:46.236Z,97896.03
2023-03-12T06:11:51.028Z,97898.22
2023-03-12T06:16:54.124Z,97906.69
2023-03-12T06:21:57.053Z,97899.59
2023-03-12T06:27:01.693Z,97894.44
2023-03-12T06:32:04.757Z,97887.53
2023-03-12T06:37:07.648Z,97884.56
2023-03-12T06:42:13.004Z,97880.97
2023-03-12T06:47:17.595Z,97868.34
2023-03-12T06:52:20.686Z,97882.75
2023-03-12T06:57:24.884Z,97886.13
2023-03-12T07:02:28.055Z,97878.31
2023-03-12T07:07:31.123Z,97878.44
2023-03-12T07:12:35.239Z,97867.38
2023-03-12T07:17:38.194Z,97873.09
2023-03-12T07:22:41.024Z,97897.38
2023-03-12T07:27:46.905Z,97892.56
2023-03-12T07:32:50.077Z,97891.72
2023-03-12T07:37:52.957Z,97905.94
2023-03-12T07:42:57.733Z,97910.25
2023-03-12T07:48:00.784Z,97897.22
2023-03-12T07:53:04.721Z,97895.94
2023-03-12T07:58:09.061Z,97889.88
2023-03-12T08:03:12.291Z,97891.16
2023-03-12T08:08:15.826Z,97895.19
2023-03-12T08:13:20.267Z,97892.72
2023-03-12T08:18:26.900Z,97898.03
2023-03-12T08:23:29.936Z,97888.25
2023-03-12T08:28:34.261Z,97895.16
2023-03-12T08:33:41.081Z,97892.19
2023-03-12T08:38:43.872Z,97899.22
2023-03-12T08:43:48.106Z,97886.28
2023-03-12T08:48:51.110Z,97876.97
2023-03-12T08:53:54.128Z,97872.78
2023-03-12T08:58:59.293Z,97878.94
2023-03-12T09:04:04.538Z,97877.50
2023-03-12T09:09:09.032Z,97882.31
2023-03-12T09:15:01.578Z,97867.88
2023-03-12T09:19:36.571Z,97875.13
2023-03-12T09:24:39.381Z,97872.13
2023-03-12T09:29:58.800Z,97878.44
2023-03-12T09:35:02.387Z,97875.19
2023-03-12T09:40:08.100Z,97867.59
2023-03-12T09:45:18.191Z,97875.66
2023-03-12T09:50:27.870Z,97864.84
2023-03-12T09:55:36.821Z,97864.66
2023-03-12T10:00:41.385Z,97874.16
2023-03-12T10:05:48.409Z,97887.66
2023-03-12T10:10:55.970Z,97876.09
2023-03-12T10:16:12.988Z,97880.19
2023-03-12T10:21:23.152Z,97870.69
2023-03-12T10:26:32.448Z,97861.69
2023-03-12T10:31:43.016Z,97856.41
2023-03-12T10:36:47.560Z,97851.78
2023-03-12T10:41:53.000Z,97862.28
2023-03-12T10:47:09.293Z,97866.84
2023-03-12T10:52:18.650Z,97852.19
2023-03-12T10:57:22.745Z,97849.97
2023-03-12T11:02:32.494Z,97854.03
2023-03-12T11:07:36.271Z,97852.50
2023-03-12T11:12:40.781Z,97853.38
2023-03-12T11:17:45.038Z,97848.69
2023-03-12T11:22:49.995Z,97840.66
2023-03-12T11:27:56.414Z,97840.88
2023-03-12T11:33:02.107Z,97840.88
2023-03-12T11:38:11.325Z,97839.03
2023-03-12T11:43:42.758Z,97835.97
2023-03-12T11:48:58.631Z,97833.06
2023-03-12T11:54:17.722Z,97827.78
2023-03-12T11:59:36.112Z,97797.16
2023-03-12T12:05:07.029Z,97790.59
2023-03-12T12:10:18.178Z,97775.22
2023-03-12T12:15:32.249Z,97786.09
2023-03-12T12:20:46.476Z,97776.66
2023-03-12T12:26:06.597Z,97784.44
2023-03-12T12:31:23.631Z,97789.38
2023-03-12T12:36:31.848Z,97789.06
2023-03-12T12:41:39.725Z,97796.56
2023-03-12T12:46:46.360Z,97787.63
2023-03-12T12:51:57.149Z,97793.38
2023-03-12T12:57:07.095Z,97781.16
2023-03-12T13:02:18.489Z,97779.59
2023-03-12T13:07:34.939Z,97770.50
2023-03-12T13:12:48.577Z,97766.44
2023-03-12T13:18:06.322Z,97772.75
2023-03-12T13:23:31.772Z,97769.69
2023-03-12T13:28:42.024Z,97769.06
2023-03-12T13:33:49.308Z,97775.53
2023-03-12T13:38:59.906Z,97782.38
2023-03-12T13:44:38.702Z,97779.19
2023-03-12T13:49:45.314Z,97776.41
2023-03-12T13:54:51.770Z,97773.31
2023-03-12T13:59:57.945Z,97762.00
2023-03-12T14:05:07.124Z,97768.41
2023-03-12T14:10:23.908Z,97761.94
2023-03-12T14:15:37.450Z,97754.06
2023-03-12T14:20:43.025Z,97747.00
2023-03-12T14:25:49.326Z,97751.28
2023-03-12T14:31:00.642Z,97749.06
2023-03-12T14:36:09.661Z,97754.66
2023-03-12T14:41:16.756Z,97755.03
2023-03-12T14:46:23.340Z,97762.97
2023-03-12T14:51:28.030Z,97756.41
2023-03-12T14:56:34.787Z,97757.31
2023-03-12T15:01:40.624Z,97748.78
2023-03-12T15:06:47.405Z,97755.97
2023-03-12T15:11:55.666Z,97755.44
2023-03-12T15:17:00.772Z,97766.13
2023-03-12T15:22:04.942Z,97763.47
2023-03-12T15:27:32.985Z,97750.16
2023-03-12T15:32:37.168Z,97756.53
2023-03-12T15:37:41.797Z,97745.53
2023-03-12T15:42:47.310Z,97761.94
2023-03-12T15:47:54.356Z,97764.22
2023-03-12T15:53:00.608Z,97776.31
2023-03-12T15:58:04.336Z,97773.78
2023-03-12T16:03:17.486Z,97766.19
2023-03-12T16:08:28.145Z,97774.31
2023-03-12T16:13:33.489Z,97780.09
2023-03-12T16:18:39.405Z,97763.00
2023-03-12T16:23:42.241Z,97776.63
2023-03-12T16:28:45.626Z,97786.84
2023-03-12T16:33:49.917Z,97790.63
2023-03-12T16:38:52.719Z,97777.59
2023-03-12T16:43:56.864Z,97782.06
2023-03-12T16:49:02.010Z,97789.81
2023-03-12T16:54:11.281Z,97780.00
2023-03-12T16:59:23.184Z,97777.22
2023-03-12T17:04:27.467Z,97787.56
2023-03-12T17:09:30.330Z,97796.44
2023-03-12T17:14:33.180Z,97806.09
2023-03-12T17:19:38.026Z,97800.78
2023-03-12T17:24:41.225Z,97805.53
2023-03-12T17:29:44.022Z,97810.03
2023-03-12T17:34:48.938Z,97796.03
2023-03-12T17:39:51.767Z,97808.06
2023-03-12T17:44:54.725Z,97815.34
2023-03-12T17:49:59.184Z,97823.34
2023-03-12T17:55:03.626Z,97834.38
2023-03-12T18:00:13.017Z,97833.28
2023-03-12T18:05:18.548Z,97829.75
2023-03-12T18:10:21.632Z,97838.59
2023-03-12T18:15:24.575Z,97830.22
2023-03-12T18:20:38.122Z,97836.22
2023-03-12T18:25:42.093Z,97838.31
2023-03-12T18:30:46.447Z,97858.78
2023-03-12T18:35:53.964Z,97858.50
2023-03-12T18:41:03.503Z,97868.69
2023-03-12T18:46:08.320Z,97871.81
2023-03-12T18:51:12.600Z,97876.13
2023-03-12T18:56:15.478Z,97881.03
2023-03-12T19:01:18.466Z,97879.19
2023-03-12T19:06:22.668Z,97896.56
2023-03-12T19:11:26.395Z,97881.28
2023-03-12T19:16:29.293Z,97881.16
2023-03-12T19:21:33.607Z,97880.31
2023-03-12T19:26:36.463Z,97888.41
2023-03-12T19:31:39.484Z,97886.03
2023-03-12T19:36:43.884Z,97875.41
2023-03-12T19:41:47.164Z,97882.81
2023-03-12T19:46:49.885Z,97875.25
2023-03-12T19:51:54.823Z,97873.84
2023-03-12T19:56:57.676Z,97873.72
2023-03-12T20:02:01.745Z,97861.66
2023-03-12T20:07:06.012Z,97855.22
2023-03-12T20:12:08.923Z,97849.47
2023-03-12T20:17:12.259Z,97852.00
2023-03-12T20:22:17.247Z,97852.00
2023-03-12T20:27:20.404Z,97849.47
2023-03-12T20:32:23.377Z,97843.31
2023-03-12T20:37:27.674Z,97844.84
2023-03-12T20:42:31.334Z,97851.84
2023-03-12T20:47:34.631Z,97845.00
2023-03-12T20:52:39.490Z,97837.69
2023-03-12T20:57:42.348Z,97830.56
2023-03-12T21:02:45.700Z,97819.22
2023-03-12T21:07:50.386Z,97812.63
2023-03-12T21:12:53.292Z,97799.19
2023-03-12T21:17:56.207Z,97795.38
2023-03-12T21:23:01.679Z,97802.50
2023-03-12T21:28:05.450Z,97790.47
2023-03-12T21:33:08.350Z,97785.28
2023-03-12T21:38:12.657Z,97790.22
2023-03-12T21:43:15.548Z,97771.34
2023-03-12T21:48:18.723Z,97775.53
2023-03-12T21:53:24.159Z,97763.22
2023-03-12T21:58:27.781Z,97754.81
2023-03-12T22:03:30.565Z,97745.00
2023-03-12T22:08:35.660Z,97747.53
2023-03-12T22:13:38.885Z,97749.34
2023-03-12T22:18:43.585Z,97729.22
2023-03-12T22:23:50.894Z,97719.03
2023-03-12T22:28:56.907Z,97722.09
2023-03-12T22:34:00.748Z,97711.59
2023-03-12T22:39:05.927Z,97701.69
2023-03-12T22:44:09.260Z,97705.75
2023-03-12T22:49:12.216Z,97700.28
2023-03-12T22:54:17.896Z,97688.53
2023-03-12T22:59:20.690Z,97685.03
2023-03-12T23:04:23.536Z,97678.47
2023-03-12T23:09:27.742Z,97668.56
2023-03-12T23:14:30.721Z,97678.47
2023-03-12T23:19:34.320Z,97676.09
2023-03-12T23:24:40.018Z,97665.31
2023-03-12T23:29:43.281Z,97667.84
2023-03-12T23:34:46.145Z,97658.72
2023-03-12T23:39:54.913Z,97648.41
2023-03-12T23:44:58.039Z,97651.22
2023-03-12T23:50:00.872Z,97637.38
2023-03-12T23:55:05.585Z,97628.13
